Time;durP1;ratioP1;P1;durP2;ratioP2;P2;SDS_P1;SDS_P2;PMS_P1;PMS_P2;Temp;Humidity;BMP_temperature;BMP_pressure;BME280_temperature;BME280_humidity;BME280_pressure;Samples;Min_cycle;Max_cycle;Signal;HPM_P1;HPM_P2
2022/04/28 00:00:54;;;;;;;;;12.25;12.25;;;;;;;;5014950;28;45448;-66
2022/04/28 00:03:19;;;;;;;;;13.25;12.00;;;;;;;;5015253;28;45406;-65
2022/04/28 00:05:45;;;;;;;;;15.00;12.75;;;;;;;;5015163;28;45498;-65
2022/04/28 00:08:10;;;;;;;;;11.25;11.25;;;;;;;;5014793;28;45503;-66
2022/04/28 00:10:37;;;;;;;;;16.50;13.75;;;;;;;;5018275;28;45580;-67
2022/04/28 00:13:03;;;;;;;;;11.00;10.00;;;;;;;;5018540;28;45517;-66
2022/04/28 00:15:29;;;;;;;;;9.50;9.25;;;;;;;;5016927;28;45546;-65
2022/04/28 00:17:54;;;;;;;;;10.75;10.00;;;;;;;;5018162;28;45482;-64
2022/04/28 00:20:20;;;;;;;;;12.00;11.50;;;;;;;;5018435;28;45434;-66
2022/04/28 00:22:46;;;;;;;;;12.75;10.75;;;;;;;;5018426;28;45331;-67
2022/04/28 00:25:11;;;;;;;;;12.00;12.00;;;;;;;;5018429;28;45465;-66
2022/04/28 00:27:37;;;;;;;;;13.00;12.00;;;;;;;;5017927;28;45466;-69
2022/04/28 00:30:03;;;;;;;;;13.50;13.00;;;;;;;;5017814;28;45492;-66
2022/04/28 00:32:28;;;;;;;;;10.75;10.75;;;;;;;;5017984;28;45429;-66
2022/04/28 00:34:53;;;;;;;;;13.50;13.00;;;;;;;;5018105;28;45390;-66
2022/04/28 00:37:19;;;;;;;;;13.25;11.50;;;;;;;;5018082;28;45978;-66
2022/04/28 00:39:45;;;;;;;;;13.25;12.25;;;;;;;;5017957;28;45781;-65
2022/04/28 00:42:11;;;;;;;;;13.50;13.00;;;;;;;;5018074;28;45374;-65
2022/04/28 00:44:37;;;;;;;;;15.50;13.00;;;;;;;;5018163;28;45549;-66
2022/04/28 00:47:03;;;;;;;;;16.00;13.25;;;;;;;;5018678;28;46161;-66
2022/04/28 00:52:12;;;;;;;;;13.50;12.50;;;;;;;;5019639;28;45490;-66
2022/04/28 00:54:37;;;;;;;;;16.50;13.50;;;;;;;;5019794;28;45350;-68
2022/04/28 00:57:03;;;;;;;;;13.25;13.25;;;;;;;;5019297;28;46332;-68
2022/04/28 00:59:30;;;;;;;;;12.25;11.25;;;;;;;;5019314;28;45418;-65
2022/04/28 01:01:55;;;;;;;;;10.00;10.00;;;;;;;;5019351;28;45438;-65
2022/04/28 01:04:21;;;;;;;;;11.25;10.00;;;;;;;;5019617;28;45498;-65
2022/04/28 01:06:46;;;;;;;;;9.75;9.00;;;;;;;;5019205;28;45294;-65
2022/04/28 01:09:13;;;;;;;;;10.75;9.00;;;;;;;;5019027;28;45296;-65
2022/04/28 01:11:40;;;;;;;;;7.33;7.33;;;;;;;;5019200;28;45983;-66
2022/04/28 01:14:06;;;;;;;;;9.75;8.50;;;;;;;;5019282;28;45431;-66
2022/04/28 01:16:31;;;;;;;;;10.75;10.50;;;;;;;;5018806;28;46230;-65
2022/04/28 01:18:58;;;;;;;;;11.50;10.50;;;;;;;;5018834;28;45481;-65
2022/04/28 01:21:24;;;;;;;;;11.75;11.00;;;;;;;;5019044;28;45573;-65
2022/04/28 01:23:50;;;;;;;;;14.50;13.50;;;;;;;;5019347;28;45442;-65
2022/04/28 01:26:16;;;;;;;;;11.75;11.00;;;;;;;;5018665;28;46208;-65
2022/04/28 01:28:41;;;;;;;;;10.00;9.67;;;;;;;;5018475;28;45379;-66
2022/04/28 01:31:06;;;;;;;;;11.00;10.33;;;;;;;;5018889;28;45667;-66
2022/04/28 01:33:32;;;;;;;;;9.67;9.00;;;;;;;;5018786;28;46222;-65
2022/04/28 01:35:57;;;;;;;;;10.00;9.75;;;;;;;;5018425;28;46018;-66
2022/04/28 01:38:24;;;;;;;;;10.00;9.33;;;;;;;;5018950;28;45364;-66
2022/04/28 01:40:49;;;;;;;;;11.00;9.67;;;;;;;;5018827;28;45521;-67
2022/04/28 01:43:14;;;;;;;;;12.67;10.00;;;;;;;;5018807;28;45453;-65
2022/04/28 01:45:40;;;;;;;;;12.00;10.00;;;;;;;;5018513;28;45351;-65
2022/04/28 01:48:05;;;;;;;;;7.75;7.50;;;;;;;;5018656;28;45461;-65
2022/04/28 01:50:31;;;;;;;;;11.00;9.00;;;;;;;;5018493;28;45709;-64
2022/04/28 01:55:40;;;;;;;;;9.00;9.00;;;;;;;;5018202;28;45493;-65
2022/04/28 01:58:05;;;;;;;;;11.33;11.00;;;;;;;;5018216;28;45300;-65
2022/04/28 02:00:32;;;;;;;;;8.67;8.33;;;;;;;;5018297;28;45831;-65
2022/04/28 02:02:57;;;;;;;;;8.00;8.00;;;;;;;;5018383;28;45521;-65
2022/04/28 02:05:23;;;;;;;;;9.00;8.00;;;;;;;;5018261;28;45985;-65
2022/04/28 02:07:48;;;;;;;;;10.25;10.00;;;;;;;;5018122;28;45372;-65
2022/04/28 02:10:14;;;;;;;;;7.00;7.00;;;;;;;;5018313;28;45409;-65
2022/04/28 02:12:39;;;;;;;;;9.33;9.00;;;;;;;;5018554;28;45347;-66
2022/04/28 02:15:05;;;;;;;;;11.25;10.75;;;;;;;;5017961;28;45582;-65
2022/04/28 02:17:34;;;;;;;;;11.75;11.50;;;;;;;;5018121;28;45424;-65
2022/04/28 02:20:02;;;;;;;;;12.67;11.00;;;;;;;;5018154;28;45422;-64
2022/04/28 02:22:27;;;;;;;;;11.67;10.67;;;;;;;;5018479;28;45914;-65
2022/04/28 02:24:53;;;;;;;;;13.00;10.33;;;;;;;;5018234;28;46144;-66
2022/04/28 02:27:18;;;;;;;;;12.25;11.75;;;;;;;;5018221;28;45607;-65
2022/04/28 02:29:44;;;;;;;;;14.50;12.50;;;;;;;;5018095;28;45900;-66
2022/04/28 02:32:10;;;;;;;;;14.50;13.25;;;;;;;;5017318;28;45398;-64
2022/04/28 02:34:35;;;;;;;;;13.00;12.25;;;;;;;;5017592;28;46162;-64
2022/04/28 02:37:01;;;;;;;;;10.25;10.00;;;;;;;;5017744;28;45497;-65
2022/04/28 02:39:26;;;;;;;;;13.00;11.00;;;;;;;;5018157;28;45378;-64
2022/04/28 02:41:53;;;;;;;;;11.75;11.75;;;;;;;;5017965;28;45473;-65
2022/04/28 02:44:19;;;;;;;;;13.50;11.75;;;;;;;;5017505;28;45295;-65
2022/04/28 02:46:45;;;;;;;;;12.00;11.25;;;;;;;;5017543;28;45585;-64
2022/04/28 02:49:11;;;;;;;;;10.00;10.00;;;;;;;;5017785;28;45414;-65
2022/04/28 02:51:37;;;;;;;;;12.00;12.00;;;;;;;;5017599;28;45415;-65
2022/04/28 02:54:03;;;;;;;;;11.75;11.50;;;;;;;;5017358;28;45319;-65
2022/04/28 02:56:29;;;;;;;;;11.75;11.75;;;;;;;;5017851;28;45311;-65
2022/04/28 02:58:54;;;;;;;;;17.50;14.25;;;;;;;;5017454;28;46169;-65
2022/04/28 03:01:20;;;;;;;;;11.00;11.00;;;;;;;;5017362;28;45410;-65
2022/04/28 03:03:46;;;;;;;;;14.00;13.00;;;;;;;;5017196;28;46722;-65
2022/04/28 03:11:38;;;;;;;;;13.00;13.00;;;;;;;;5017547;28;45452;-65
2022/04/28 03:14:04;;;;;;;;;13.50;11.25;;;;;;;;5017093;28;45871;-65
2022/04/28 03:16:29;;;;;;;;;11.00;10.50;;;;;;;;5032953;28;45391;-67
2022/04/28 03:18:55;;;;;;;;;13.75;12.00;;;;;;;;5017273;28;45379;-65
2022/04/28 03:21:21;;;;;;;;;10.00;9.50;;;;;;;;5017534;28;45897;-65
2022/04/28 03:23:46;;;;;;;;;12.25;11.00;;;;;;;;5016870;28;45626;-65
2022/04/28 03:26:12;;;;;;;;;12.00;11.00;;;;;;;;5017133;28;45512;-65
2022/04/28 03:28:38;;;;;;;;;11.00;10.00;;;;;;;;5017167;28;45334;-65
2022/04/28 03:31:04;;;;;;;;;11.00;10.00;;;;;;;;5017604;28;45467;-64
2022/04/28 03:33:29;;;;;;;;;11.00;11.00;;;;;;;;5017279;28;45239;-64
2022/04/28 03:35:54;;;;;;;;;12.33;10.33;;;;;;;;5017067;28;45212;-65
2022/04/28 03:38:20;;;;;;;;;13.25;13.25;;;;;;;;5017138;28;45923;-66
2022/04/28 03:40:45;;;;;;;;;13.25;12.00;;;;;;;;5015235;28;45445;-65
2022/04/28 03:43:11;;;;;;;;;12.00;11.00;;;;;;;;5015119;28;45486;-64
2022/04/28 03:45:37;;;;;;;;;13.75;12.75;;;;;;;;5018657;28;45524;-64
2022/04/28 03:48:03;;;;;;;;;12.25;11.50;;;;;;;;5018763;28;45501;-64
2022/04/28 03:50:29;;;;;;;;;12.00;11.75;;;;;;;;5018543;28;45548;-64
2022/04/28 03:52:55;;;;;;;;;12.00;11.00;;;;;;;;5018258;28;46133;-64
2022/04/28 03:55:20;;;;;;;;;14.50;14.00;;;;;;;;5018565;28;45488;-64
2022/04/28 03:57:46;;;;;;;;;12.67;12.67;;;;;;;;5018575;28;45481;-64
2022/04/28 04:00:12;;;;;;;;;14.00;12.00;;;;;;;;5018699;28;45453;-65
2022/04/28 04:02:37;;;;;;;;;14.75;13.00;;;;;;;;5017073;28;47476;-64
2022/04/28 04:05:03;;;;;;;;;14.00;12.25;;;;;;;;5018369;28;45465;-65
2022/04/28 04:07:31;;;;;;;;;15.25;13.00;;;;;;;;5018564;28;45550;-63
2022/04/28 04:09:57;;;;;;;;;12.75;12.50;;;;;;;;5019442;28;45315;-65
2022/04/28 04:12:22;;;;;;;;;13.00;12.25;;;;;;;;5019620;28;46115;-65
2022/04/28 04:14:48;;;;;;;;;11.25;11.00;;;;;;;;5020145;28;45244;-65
2022/04/28 04:17:14;;;;;;;;;14.25;12.25;;;;;;;;5020112;28;45182;-64
2022/04/28 04:19:39;;;;;;;;;17.00;15.00;;;;;;;;5020252;28;45355;-64
2022/04/28 04:22:04;;;;;;;;;16.75;14.50;;;;;;;;5019598;28;46047;-64
2022/04/28 04:24:30;;;;;;;;;15.75;14.75;;;;;;;;5020218;28;45340;-64
2022/04/28 04:26:56;;;;;;;;;14.00;13.50;;;;;;;;5019934;28;45478;-65
2022/04/28 04:29:21;;;;;;;;;18.25;17.25;;;;;;;;5020063;28;45578;-64
2022/04/28 04:34:30;;;;;;;;;14.75;14.00;;;;;;;;5019800;28;45497;-64
2022/04/28 04:36:56;;;;;;;;;17.00;15.25;;;;;;;;5019635;28;45514;-64
2022/04/28 04:39:21;;;;;;;;;13.75;13.75;;;;;;;;5019960;28;45292;-64
2022/04/28 04:41:47;;;;;;;;;15.50;14.50;;;;;;;;5019602;28;45565;-64
2022/04/28 04:44:15;;;;;;;;;16.50;13.50;;;;;;;;5019302;28;45506;-64
2022/04/28 04:46:41;;;;;;;;;14.50;14.00;;;;;;;;5019441;28;45450;-64
2022/04/28 04:49:06;;;;;;;;;20.00;16.50;;;;;;;;5019269;28;45422;-64
2022/04/28 04:51:32;;;;;;;;;13.50;12.50;;;;;;;;5019466;28;45252;-64
2022/04/28 04:53:57;;;;;;;;;13.50;12.50;;;;;;;;5019160;28;45432;-64
2022/04/28 04:56:22;;;;;;;;;14.50;13.25;;;;;;;;5018937;28;45487;-64
2022/04/28 04:58:48;;;;;;;;;14.00;14.00;;;;;;;;5019440;28;45215;-64
2022/04/28 05:01:13;;;;;;;;;15.00;13.25;;;;;;;;5018852;28;46275;-64
2022/04/28 05:03:40;;;;;;;;;15.00;14.00;;;;;;;;5018983;28;45401;-64
2022/04/28 05:06:06;;;;;;;;;16.00;14.50;;;;;;;;5019191;28;45312;-64
2022/04/28 05:08:31;;;;;;;;;15.00;12.25;;;;;;;;5019373;28;45465;-64
2022/04/28 05:10:57;;;;;;;;;16.50;15.50;;;;;;;;5018639;28;45870;-64
2022/04/28 05:13:22;;;;;;;;;15.50;15.50;;;;;;;;5018988;28;45459;-64
2022/04/28 05:15:48;;;;;;;;;18.00;15.00;;;;;;;;5019367;28;45213;-64
2022/04/28 05:18:13;;;;;;;;;15.00;14.50;;;;;;;;5019189;28;45535;-64
2022/04/28 05:20:38;;;;;;;;;17.00;17.00;;;;;;;;5017528;28;45422;-63
2022/04/28 05:23:04;;;;;;;;;15.00;14.25;;;;;;;;5017453;28;45193;-66
2022/04/28 05:25:29;;;;;;;;;17.75;17.00;;;;;;;;5017153;28;45363;-64
2022/04/28 05:27:55;;;;;;;;;16.25;15.25;;;;;;;;5017341;28;45234;-65
2022/04/28 05:30:21;;;;;;;;;18.75;15.75;;;;;;;;5016870;28;46070;-63
2022/04/28 05:32:46;;;;;;;;;29.00;27.50;;;;;;;;5016907;28;45449;-64
2022/04/28 05:35:11;;;;;;;;;20.75;16.25;;;;;;;;5017050;28;45509;-64
2022/04/28 05:37:37;;;;;;;;;17.25;15.75;;;;;;;;5017288;28;45507;-64
2022/04/28 05:40:04;;;;;;;;;12.00;11.67;;;;;;;;5017029;28;45473;-63
2022/04/28 05:47:58;;;;;;;;;21.00;19.75;;;;;;;;5024634;28;45190;-65
2022/04/28 05:50:23;;;;;;;;;16.00;15.75;;;;;;;;5025861;28;45491;-66
2022/04/28 05:52:48;;;;;;;;;17.25;15.00;;;;;;;;5027789;28;45474;-65
2022/04/28 05:55:14;;;;;;;;;13.00;13.00;;;;;;;;5025903;28;45533;-63
2022/04/28 05:57:39;;;;;;;;;15.25;14.50;;;;;;;;5027047;28;45414;-64
2022/04/28 06:00:06;;;;;;;;;13.00;13.00;;;;;;;;5027229;28;45487;-66
2022/04/28 06:02:31;;;;;;;;;18.00;16.75;;;;;;;;5027846;28;45475;-64
2022/04/28 06:04:56;;;;;;;;;17.75;17.75;;;;;;;;5026125;28;45898;-65
2022/04/28 06:07:22;;;;;;;;;15.00;13.50;;;;;;;;5025339;28;45456;-63
2022/04/28 06:09:47;;;;;;;;;17.25;15.00;;;;;;;;5027103;28;45392;-63
2022/04/28 06:12:14;;;;;;;;;15.25;13.25;;;;;;;;5022640;28;45429;-64
2022/04/28 06:14:39;;;;;;;;;17.25;16.00;;;;;;;;5026451;28;45551;-64
2022/04/28 06:17:04;;;;;;;;;18.50;17.00;;;;;;;;5027077;28;45478;-63
2022/04/28 06:19:30;;;;;;;;;17.00;15.00;;;;;;;;5025145;28;45730;-64
2022/04/28 06:21:55;;;;;;;;;17.50;16.75;;;;;;;;5026791;28;45530;-65
2022/04/28 06:24:20;;;;;;;;;19.50;15.00;;;;;;;;5026333;28;45474;-65
2022/04/28 06:26:46;;;;;;;;;15.25;15.00;;;;;;;;5024785;28;45463;-65
2022/04/28 06:29:11;;;;;;;;;17.00;16.00;;;;;;;;5015949;28;46015;-65
2022/04/28 06:31:36;;;;;;;;;19.50;17.50;;;;;;;;5016175;28;45547;-66
2022/04/28 06:34:02;;;;;;;;;18.75;17.75;;;;;;;;5016372;28;46015;-66
2022/04/28 06:36:27;;;;;;;;;17.25;16.75;;;;;;;;5016204;28;45511;-65
2022/04/28 06:38:52;;;;;;;;;15.50;13.75;;;;;;;;5015845;28;45587;-65
2022/04/28 06:41:18;;;;;;;;;17.00;16.00;;;;;;;;5017117;28;45733;-65
2022/04/28 06:43:43;;;;;;;;;17.00;16.00;;;;;;;;5017615;28;45209;-65
2022/04/28 06:46:15;;;;;;;;;13.67;12.33;;;;;;;;5017233;28;45625;-65
2022/04/28 06:48:41;;;;;;;;;19.75;16.00;;;;;;;;5017364;28;45436;-67
2022/04/28 06:51:06;;;;;;;;;18.00;17.75;;;;;;;;5017607;28;45392;-66
2022/04/28 06:53:32;;;;;;;;;19.25;17.00;;;;;;;;5017460;28;45453;-66
2022/04/28 06:55:57;;;;;;;;;17.25;15.75;;;;;;;;5017789;28;45731;-67
2022/04/28 06:58:23;;;;;;;;;19.50;18.00;;;;;;;;5017274;28;46080;-67
2022/04/28 07:00:49;;;;;;;;;17.00;15.50;;;;;;;;5017498;28;45298;-67
2022/04/28 07:03:14;;;;;;;;;24.00;20.25;;;;;;;;5017620;28;45555;-67
2022/04/28 07:05:40;;;;;;;;;21.25;18.00;;;;;;;;5017601;28;45460;-67
2022/04/28 07:08:05;;;;;;;;;20.50;18.00;;;;;;;;5017518;28;45483;-67
2022/04/28 07:10:31;;;;;;;;;19.25;18.25;;;;;;;;5016936;28;45323;-67
2022/04/28 07:12:56;;;;;;;;;19.50;19.25;;;;;;;;5017303;28;45572;-66
2022/04/28 07:15:22;;;;;;;;;17.75;16.75;;;;;;;;5017355;28;45444;-67
2022/04/28 07:17:47;;;;;;;;;14.67;14.67;;;;;;;;5016908;28;46231;-67
2022/04/28 07:20:12;;;;;;;;;17.50;16.50;;;;;;;;5017158;28;45334;-68
2022/04/28 07:22:39;;;;;;;;;19.00;18.00;;;;;;;;5017709;28;45319;-67
2022/04/28 07:25:04;;;;;;;;;15.33;15.00;;;;;;;;5016470;28;45510;-67
2022/04/28 07:27:30;;;;;;;;;18.00;17.50;;;;;;;;5014951;28;45493;-67
2022/04/28 07:29:55;;;;;;;;;17.75;15.75;;;;;;;;5015181;28;45291;-67
2022/04/28 07:32:20;;;;;;;;;18.75;18.75;;;;;;;;5015482;28;45379;-67
2022/04/28 07:34:45;;;;;;;;;18.00;16.33;;;;;;;;5015049;28;45739;-67
2022/04/28 07:37:11;;;;;;;;;14.00;12.67;;;;;;;;5021061;28;45560;-67
2022/04/28 07:39:36;;;;;;;;;18.00;16.00;;;;;;;;5015594;28;45273;-67
2022/04/28 07:42:01;;;;;;;;;23.75;21.50;;;;;;;;5013832;28;45365;-67
2022/04/28 07:44:27;;;;;;;;;25.50;23.50;;;;;;;;5015498;28;45191;-67
2022/04/28 07:46:52;;;;;;;;;19.25;18.75;;;;;;;;5015162;28;45470;-67
2022/04/28 07:49:18;;;;;;;;;26.00;24.25;;;;;;;;5014909;28;45487;-67
2022/04/28 07:51:43;;;;;;;;;21.75;20.25;;;;;;;;5016553;28;45311;-67
2022/04/28 07:54:08;;;;;;;;;22.00;20.75;;;;;;;;5017276;28;46126;-67
2022/04/28 07:56:33;;;;;;;;;20.00;19.75;;;;;;;;5016545;28;46192;-67
2022/04/28 07:58:59;;;;;;;;;20.50;20.25;;;;;;;;5016593;28;45767;-66
2022/04/28 08:01:24;;;;;;;;;18.75;16.25;;;;;;;;5016085;28;45954;-66
2022/04/28 08:03:50;;;;;;;;;24.25;22.50;;;;;;;;5014781;28;45461;-72
2022/04/28 08:06:15;;;;;;;;;25.75;25.00;;;;;;;;5014797;28;46160;-68
2022/04/28 08:08:41;;;;;;;;;28.00;26.50;;;;;;;;5014615;28;45460;-67
2022/04/28 08:11:07;;;;;;;;;36.00;31.75;;;;;;;;5013631;28;45665;-68
2022/04/28 08:13:32;;;;;;;;;20.50;19.25;;;;;;;;5028309;28;45348;-67
2022/04/28 08:15:58;;;;;;;;;19.67;17.00;;;;;;;;5016139;28;45965;-67
2022/04/28 08:18:26;;;;;;;;;28.75;27.25;;;;;;;;5016278;28;45502;-67
2022/04/28 08:20:51;;;;;;;;;23.75;22.75;;;;;;;;5015643;28;45511;-66
2022/04/28 08:23:17;;;;;;;;;22.00;21.25;;;;;;;;5015730;28;45353;-66
2022/04/28 08:25:42;;;;;;;;;23.25;21.00;;;;;;;;5015685;28;46085;-66
2022/04/28 08:28:07;;;;;;;;;19.00;17.00;;;;;;;;5016163;28;45427;-73
2022/04/28 08:30:33;;;;;;;;;20.75;20.00;;;;;;;;5017824;28;45471;-66
2022/04/28 08:32:59;;;;;;;;;21.75;20.50;;;;;;;;5018726;28;45343;-67
2022/04/28 08:35:25;;;;;;;;;21.50;20.00;;;;;;;;5017780;28;45505;-72
2022/04/28 08:37:50;;;;;;;;;21.50;21.00;;;;;;;;5017900;28;46049;-80
2022/04/28 08:40:16;;;;;;;;;31.50;29.75;;;;;;;;5033355;28;45994;-71
2022/04/28 08:42:42;;;;;;;;;34.25;32.00;;;;;;;;5015104;28;45437;-67
2022/04/28 08:45:08;;;;;;;;;26.50;25.75;;;;;;;;5018088;28;46000;-68
2022/04/28 08:47:33;;;;;;;;;28.00;27.50;;;;;;;;5019104;28;45513;-67
2022/04/28 08:49:59;;;;;;;;;25.00;25.00;;;;;;;;5019102;28;45356;-67
2022/04/28 08:52:25;;;;;;;;;27.75;26.25;;;;;;;;5019507;28;45492;-67
2022/04/28 08:54:52;;;;;;;;;26.75;22.00;;;;;;;;5019311;28;45409;-67
2022/04/28 08:57:18;;;;;;;;;18.00;16.67;;;;;;;;5019089;28;45222;-66
2022/04/28 08:59:44;;;;;;;;;17.00;16.00;;;;;;;;5017629;28;45409;-68
2022/04/28 09:02:12;;;;;;;;;17.00;16.00;;;;;;;;5019835;28;45355;-69
2022/04/28 09:04:39;;;;;;;;;14.00;14.00;;;;;;;;5019240;28;45494;-67
2022/04/28 09:07:06;;;;;;;;;15.67;14.33;;;;;;;;5018788;28;45719;-68
2022/04/28 09:09:32;;;;;;;;;18.67;17.33;;;;;;;;5018873;28;45519;-67
2022/04/28 09:11:58;;;;;;;;;15.33;13.67;;;;;;;;5019297;28;45228;-67
2022/04/28 09:14:24;;;;;;;;;12.00;11.67;;;;;;;;5018930;28;46348;-68
2022/04/28 09:17:03;;;;;;;;;13.00;12.00;;;;;;;;5018920;28;45177;-67
2022/04/28 09:19:34;;;;;;;;;16.33;13.33;;;;;;;;5018836;28;45533;-67
2022/04/28 09:22:01;;;;;;;;;34.00;32.00;;;;;;;;5018464;28;45287;-68
2022/04/28 09:24:27;;;;;;;;;17.33;14.67;;;;;;;;5018296;28;45465;-68
2022/04/28 09:26:54;;;;;;;;;16.67;14.67;;;;;;;;5018595;28;45319;-68
2022/04/28 09:29:20;;;;;;;;;12.67;11.67;;;;;;;;5018363;28;45362;-68
2022/04/28 09:31:46;;;;;;;;;13.33;11.33;;;;;;;;5018451;28;45494;-67
2022/04/28 09:34:12;;;;;;;;;11.33;11.00;;;;;;;;5018353;28;45423;-71
2022/04/28 09:36:38;;;;;;;;;13.33;12.67;;;;;;;;5018242;28;45479;-68
2022/04/28 09:39:04;;;;;;;;;11.00;10.33;;;;;;;;5017476;28;45409;-67
2022/04/28 09:44:16;;;;;;;;;14.67;12.67;;;;;;;;5018208;28;45721;-67
2022/04/28 09:46:42;;;;;;;;;13.00;12.00;;;;;;;;5018661;28;45328;-69
2022/04/28 09:49:09;;;;;;;;;13.67;13.00;;;;;;;;5017872;28;45496;-68
2022/04/28 09:51:35;;;;;;;;;12.67;12.00;;;;;;;;5018510;28;45395;-68
2022/04/28 09:54:04;;;;;;;;;14.33;13.67;;;;;;;;5016152;28;45350;-68
2022/04/28 09:56:34;;;;;;;;;13.33;11.33;;;;;;;;5016137;28;45540;-69
2022/04/28 09:58:59;;;;;;;;;13.33;12.67;;;;;;;;5016520;28;45352;-69
2022/04/28 10:01:25;;;;;;;;;24.25;21.75;;;;;;;;5017146;28;45524;-70
2022/04/28 10:03:50;;;;;;;;;13.00;12.00;;;;;;;;5017345;28;45526;-69
2022/04/28 10:06:17;;;;;;;;;9.67;9.00;;;;;;;;5016569;28;45898;-69
2022/04/28 10:08:44;;;;;;;;;12.33;11.33;;;;;;;;5017855;28;45316;-67
2022/04/28 10:11:10;;;;;;;;;13.33;12.67;;;;;;;;5017630;28;45447;-67
2022/04/28 10:13:36;;;;;;;;;12.33;12.33;;;;;;;;5017019;28;45378;-68
2022/04/28 10:16:05;;;;;;;;;12.33;11.00;;;;;;;;5017222;28;45506;-67
2022/04/28 10:18:33;;;;;;;;;10.67;9.00;;;;;;;;5017715;28;45490;-68
2022/04/28 10:21:01;;;;;;;;;11.33;11.33;;;;;;;;5017587;28;45324;-69
2022/04/28 10:34:28;;;;;;;;;16.00;14.00;;;;;;;;5013739;28;46675;-66
2022/04/28 10:36:53;;;;;;;;;15.50;15.25;;;;;;;;5015416;28;45703;-68
2022/04/28 10:39:38;;;;;;;;;13.33;12.33;;;;;;;;5015272;28;45431;-67
2022/04/28 10:42:13;;;;;;;;;10.00;10.00;;;;;;;;5015398;28;45374;-71
2022/04/28 10:44:40;;;;;;;;;13.33;12.00;;;;;;;;5016102;28;46131;-70
2022/04/28 10:47:07;;;;;;;;;12.67;11.33;;;;;;;;5015708;28;45433;-68
2022/04/28 10:49:39;;;;;;;;;14.33;14.00;;;;;;;;5016057;28;45540;-69
2022/04/28 10:52:04;;;;;;;;;16.00;15.00;;;;;;;;5016047;28;45490;-68
2022/04/28 10:54:43;;;;;;;;;14.67;12.67;;;;;;;;5016037;28;45940;-68
2022/04/28 10:57:11;;;;;;;;;11.67;11.67;;;;;;;;5015345;28;46156;-66
2022/04/28 10:59:38;;;;;;;;;14.33;13.67;;;;;;;;5015535;28;45307;-68
2022/04/28 11:02:10;;;;;;;;;13.33;13.00;;;;;;;;5015248;28;45414;-68
2022/04/28 11:04:35;;;;;;;;;24.00;23.50;;;;;;;;5012934;28;46546;-68
2022/04/28 11:07:05;;;;;;;;;23.25;20.25;;;;;;;;5015008;28;45480;-69
2022/04/28 11:09:41;;;;;;;;;24.50;23.00;;;;;;;;5015439;28;45379;-68
2022/04/28 11:12:11;;;;;;;;;17.67;14.33;;;;;;;;5015258;28;45438;-69
2022/04/28 11:14:45;;;;;;;;;16.67;15.00;;;;;;;;5015149;28;45427;-68
2022/04/28 11:17:12;;;;;;;;;12.00;11.33;;;;;;;;5012609;28;45472;-70
2022/04/28 11:19:37;;;;;;;;;12.33;12.00;;;;;;;;5015801;28;45371;-68
2022/04/28 11:22:03;;;;;;;;;14.33;14.00;;;;;;;;5016087;28;45418;-69
2022/04/28 11:24:29;;;;;;;;;15.00;14.33;;;;;;;;5015791;28;45455;-68
2022/04/28 11:26:58;;;;;;;;;13.00;12.67;;;;;;;;5015915;28;45336;-69
2022/04/28 11:29:23;;;;;;;;;21.33;15.00;;;;;;;;5015585;28;45598;-69
2022/04/28 11:31:49;;;;;;;;;20.75;18.50;;;;;;;;5016124;28;45515;-68
2022/04/28 11:34:15;;;;;;;;;15.33;14.00;;;;;;;;5015961;28;45905;-70
2022/04/28 11:36:41;;;;;;;;;17.75;15.25;;;;;;;;5015767;28;45725;-68
2022/04/28 11:39:08;;;;;;;;;18.50;17.50;;;;;;;;5015676;28;45383;-67
2022/04/28 11:41:34;;;;;;;;;17.00;16.00;;;;;;;;5015854;28;45549;-70
2022/04/28 11:44:01;;;;;;;;;15.33;13.67;;;;;;;;5015607;28;45650;-72
2022/04/28 11:46:26;;;;;;;;;13.00;11.67;;;;;;;;5015578;28;45367;-71
2022/04/28 11:48:52;;;;;;;;;16.00;15.75;;;;;;;;5015786;28;45388;-70
2022/04/28 11:51:21;;;;;;;;;16.00;16.00;;;;;;;;5016225;28;45541;-68
2022/04/28 11:53:46;;;;;;;;;13.67;12.33;;;;;;;;5016057;28;45443;-70
2022/04/28 11:56:15;;;;;;;;;14.00;13.33;;;;;;;;5016583;28;45510;-70
2022/04/28 11:58:41;;;;;;;;;14.00;13.67;;;;;;;;5016813;28;45365;-71
2022/04/28 12:01:06;;;;;;;;;16.33;13.33;;;;;;;;5016293;28;45375;-71
2022/04/28 12:03:33;;;;;;;;;19.75;19.00;;;;;;;;5016055;28;46160;-69
2022/04/28 12:05:59;;;;;;;;;20.25;20.00;;;;;;;;5018995;28;45292;-70
2022/04/28 12:08:24;;;;;;;;;13.67;13.67;;;;;;;;5020008;28;45442;-69
2022/04/28 12:16:19;;;;;;;;;15.00;14.67;;;;;;;;5019972;28;45162;-68
2022/04/28 12:21:34;;;;;;;;;15.00;15.00;;;;;;;;5019716;28;45923;-69
2022/04/28 12:24:01;;;;;;;;;13.50;12.50;;;;;;;;5019601;28;46087;-69
2022/04/28 12:26:26;;;;;;;;;14.67;13.67;;;;;;;;5018557;28;45780;-69
2022/04/28 12:28:53;;;;;;;;;16.00;15.00;;;;;;;;5018673;28;45359;-70
2022/04/28 12:31:28;;;;;;;;;17.00;15.00;;;;;;;;5019297;28;45430;-68
2022/04/28 12:33:54;;;;;;;;;15.00;15.00;;;;;;;;5018482;28;45478;-68
2022/04/28 12:36:19;;;;;;;;;13.67;12.33;;;;;;;;5019111;28;45406;-69
2022/04/28 12:38:50;;;;;;;;;14.00;14.00;;;;;;;;5018784;28;45585;-69
2022/04/28 12:41:24;;;;;;;;;12.00;12.00;;;;;;;;5018982;28;45442;-69
2022/04/28 12:43:50;;;;;;;;;20.25;19.00;;;;;;;;5018735;28;45339;-70
2022/04/28 12:46:33;;;;;;;;;15.25;14.25;;;;;;;;5018171;28;45445;-70
2022/04/28 12:49:01;;;;;;;;;16.00;15.00;;;;;;;;5017859;28;45366;-70
2022/04/28 12:51:27;;;;;;;;;18.25;16.25;;;;;;;;5018578;28;45464;-70
2022/04/28 12:54:06;;;;;;;;;14.00;13.67;;;;;;;;5018098;28;45507;-70
2022/04/28 12:56:32;;;;;;;;;17.00;15.25;;;;;;;;5017316;28;45677;-70
2022/04/28 12:58:59;;;;;;;;;14.00;12.50;;;;;;;;5018254;28;45489;-70
2022/04/28 13:01:24;;;;;;;;;19.00;14.50;;;;;;;;5018679;28;45467;-70
2022/04/28 13:03:55;;;;;;;;;20.25;16.75;;;;;;;;5018524;28;45234;-70
2022/04/28 13:06:25;;;;;;;;;15.00;13.67;;;;;;;;5018735;28;45412;-70
2022/04/28 13:08:54;;;;;;;;;32.00;27.50;;;;;;;;5018835;28;45217;-70
2022/04/28 13:11:24;;;;;;;;;16.50;14.75;;;;;;;;5019154;28;45162;-70
2022/04/28 13:13:50;;;;;;;;;16.33;15.67;;;;;;;;5018787;28;46046;-70
2022/04/28 13:16:17;;;;;;;;;15.33;14.33;;;;;;;;5018130;28;45454;-70
2022/04/28 13:18:42;;;;;;;;;13.67;13.00;;;;;;;;5018932;28;45302;-70
2022/04/28 13:21:08;;;;;;;;;14.67;13.67;;;;;;;;5018623;28;45423;-70
2022/04/28 13:23:33;;;;;;;;;14.67;14.33;;;;;;;;5018502;28;45458;-70
2022/04/28 13:25:59;;;;;;;;;15.33;14.00;;;;;;;;5018424;28;45350;-70
2022/04/28 13:28:24;;;;;;;;;15.67;14.67;;;;;;;;5018682;28;45299;-70
2022/04/28 13:30:49;;;;;;;;;13.00;12.67;;;;;;;;5018127;28;45557;-70
2022/04/28 13:33:15;;;;;;;;;14.33;12.00;;;;;;;;5018074;28;45446;-70
2022/04/28 13:35:40;;;;;;;;;15.33;14.33;;;;;;;;5018747;28;45292;-69
2022/04/28 13:38:08;;;;;;;;;17.00;16.75;;;;;;;;5018345;28;45408;-69
2022/04/28 13:40:33;;;;;;;;;16.00;16.00;;;;;;;;5018185;28;45520;-69
2022/04/28 13:42:59;;;;;;;;;16.75;15.25;;;;;;;;5017795;28;46092;-69
2022/04/28 13:45:24;;;;;;;;;15.67;14.00;;;;;;;;5017124;28;45403;-69
2022/04/28 13:47:49;;;;;;;;;17.50;14.00;;;;;;;;5017300;28;45718;-68
2022/04/28 13:50:15;;;;;;;;;19.00;15.00;;;;;;;;5017265;28;45661;-68
2022/04/28 13:52:40;;;;;;;;;16.75;16.00;;;;;;;;5016862;28;45389;-69
2022/04/28 13:55:06;;;;;;;;;15.67;15.33;;;;;;;;5017218;28;45744;-69
2022/04/28 13:57:31;;;;;;;;;18.25;17.75;;;;;;;;5016260;28;45338;-69
2022/04/28 13:59:58;;;;;;;;;16.00;15.67;;;;;;;;5017463;28;45260;-68
2022/04/28 14:02:23;;;;;;;;;17.67;15.67;;;;;;;;5017451;28;46247;-67
2022/04/28 14:04:49;;;;;;;;;16.33;15.67;;;;;;;;5016500;28;45648;-68
2022/04/28 14:07:14;;;;;;;;;13.67;13.67;;;;;;;;5017142;28;45516;-68
2022/04/28 14:09:39;;;;;;;;;14.33;14.33;;;;;;;;5016831;28;45405;-68
2022/04/28 14:12:05;;;;;;;;;18.00;16.33;;;;;;;;5016996;28;45488;-69
2022/04/28 14:14:31;;;;;;;;;17.75;17.25;;;;;;;;5017044;28;45405;-69
2022/04/28 14:16:56;;;;;;;;;13.67;12.67;;;;;;;;5016820;28;45462;-70
2022/04/28 14:19:21;;;;;;;;;12.33;12.33;;;;;;;;5017513;28;45568;-69
2022/04/28 14:21:47;;;;;;;;;15.25;15.00;;;;;;;;5016272;28;45499;-69
2022/04/28 14:24:12;;;;;;;;;14.75;13.25;;;;;;;;5016610;28;45540;-69
2022/04/28 14:26:38;;;;;;;;;16.00;14.25;;;;;;;;5016816;28;45401;-69
2022/04/28 14:29:03;;;;;;;;;17.75;16.00;;;;;;;;5015869;28;45374;-70
2022/04/28 14:31:29;;;;;;;;;15.00;14.33;;;;;;;;5016600;28;45333;-69
2022/04/28 14:33:55;;;;;;;;;15.33;14.33;;;;;;;;5016753;28;45338;-69
2022/04/28 14:36:20;;;;;;;;;15.67;14.00;;;;;;;;5016506;28;45487;-69
2022/04/28 14:38:45;;;;;;;;;12.33;11.00;;;;;;;;5016926;28;45363;-69
2022/04/28 14:41:11;;;;;;;;;15.67;14.33;;;;;;;;5016383;28;45398;-71
2022/04/28 14:43:36;;;;;;;;;19.00;17.00;;;;;;;;5016597;28;45411;-69
2022/04/28 14:46:01;;;;;;;;;19.00;19.00;;;;;;;;5016594;28;45453;-69
2022/04/28 14:48:27;;;;;;;;;22.00;20.00;;;;;;;;5016069;28;45382;-69
2022/04/28 14:53:36;;;;;;;;;15.00;13.75;;;;;;;;5015370;28;45500;-68
2022/04/28 14:56:01;;;;;;;;;14.25;14.00;;;;;;;;5016524;28;45464;-68